createdAt,value
2023-04-18T00:00:46.149Z,72.71
2023-04-18T00:03:16.008Z,72.60
2023-04-18T00:05:44.041Z,72.66
2023-04-18T00:08:10.908Z,72.74
2023-04-18T00:10:37.355Z,72.82
2023-04-18T00:13:03.944Z,72.82
2023-04-18T00:15:31.225Z,72.59
2023-04-18T00:17:57.925Z,72.47
2023-04-18T00:20:26.198Z,72.12
2023-04-18T00:22:53.304Z,72.14
2023-04-18T00:25:19.803Z,72.04
2023-04-18T00:27:46.227Z,72.00
2023-04-18T00:30:13.110Z,72.30
2023-04-18T00:32:39.624Z,72.16
2023-04-18T00:35:06.774Z,72.41
2023-04-18T00:37:33.306Z,72.62
2023-04-18T00:39:59.735Z,72.81
2023-04-18T00:42:27.922Z,72.94
2023-04-18T00:44:54.410Z,73.41
2023-04-18T00:47:20.932Z,73.69
2023-04-18T00:49:48.478Z,73.44
2023-04-18T00:52:16.350Z,73.25
2023-04-18T00:54:43.654Z,73.03
2023-04-18T00:57:10.574Z,72.83
2023-04-18T00:59:37.239Z,72.68
2023-04-18T01:02:03.991Z,72.79
2023-04-18T01:04:32.680Z,72.77
2023-04-18T01:07:01.004Z,72.76
2023-04-18T01:09:27.769Z,73.25
2023-04-18T01:11:54.203Z,74.25
2023-04-18T01:14:20.743Z,73.32
2023-04-18T01:16:48.468Z,73.58
2023-04-18T01:19:16.985Z,73.29
2023-04-18T01:21:44.110Z,73.12
2023-04-18T01:24:12.734Z,73.29
2023-04-18T01:26:40.023Z,73.23
2023-04-18T01:29:07.033Z,72.68
2023-04-18T01:31:37.765Z,72.94
2023-04-18T01:34:05.670Z,72.81
2023-04-18T01:36:32.903Z,72.56
2023-04-18T01:39:00.086Z,72.23
2023-04-18T01:41:29.062Z,72.01
2023-04-18T01:43:55.510Z,71.91
2023-04-18T01:46:21.920Z,71.93
2023-04-18T01:48:48.392Z,72.42
2023-04-18T01:51:14.883Z,72.41
2023-04-18T01:53:41.843Z,72.65
2023-04-18T01:56:10.206Z,72.66
2023-04-18T01:58:37.372Z,72.65
2023-04-18T02:01:04.194Z,72.41
2023-04-18T02:03:31.062Z,72.28
2023-04-18T02:05:57.674Z,72.38
2023-04-18T02:08:24.243Z,72.94
2023-04-18T02:10:50.793Z,72.96
2023-04-18T02:13:17.290Z,72.94
2023-04-18T02:15:45.933Z,73.06
2023-04-18T02:18:12.476Z,73.30
2023-04-18T02:20:39.275Z,73.60
2023-04-18T02:23:05.822Z,73.64
2023-04-18T02:25:32.293Z,73.86
2023-04-18T02:27:58.793Z,73.97
2023-04-18T02:30:25.491Z,73.87
2023-04-18T02:32:57.174Z,73.50
2023-04-18T02:35:25.392Z,73.27
2023-04-18T02:37:52.244Z,73.16
2023-04-18T02:40:19.420Z,73.35
2023-04-18T02:42:46.238Z,73.26
2023-04-18T02:45:12.822Z,73.73
2023-04-18T02:47:51.194Z,73.76
2023-04-18T02:50:21.509Z,73.79
2023-04-18T02:52:47.991Z,74.32
2023-04-18T02:55:14.544Z,74.36
2023-04-18T02:57:41.023Z,74.60
2023-04-18T03:00:08.729Z,74.58
2023-04-18T03:02:35.272Z,74.79
2023-04-18T03:05:01.951Z,74.83
2023-04-18T03:07:28.417Z,74.88
2023-04-18T03:09:54.862Z,74.65
2023-04-18T03:12:21.381Z,74.55
2023-04-18T03:14:47.890Z,74.56
2023-04-18T03:17:14.375Z,74.22
2023-04-18T03:19:40.875Z,74.10
2023-04-18T03:22:07.436Z,74.15
2023-04-18T03:24:33.888Z,74.50
2023-04-18T03:27:00.730Z,74.80
2023-04-18T03:29:27.215Z,74.72
2023-04-18T03:31:53.642Z,75.04
2023-04-18T03:34:20.162Z,75.34
2023-04-18T03:36:47.954Z,74.96
2023-04-18T03:39:14.934Z,75.27
2023-04-18T03:41:41.378Z,76.25
2023-04-18T03:44:07.859Z,75.71
2023-04-18T03:46:35.114Z,75.67
2023-04-18T03:49:01.622Z,75.78
2023-04-18T03:51:33.979Z,75.72
2023-04-18T03:54:00.473Z,75.70
2023-04-18T03:56:27.143Z,75.04
2023-04-18T03:58:53.573Z,75.65
2023-04-18T04:01:19.992Z,75.31
2023-04-18T04:03:46.985Z,75.08
2023-04-18T04:06:13.536Z,75.32
2023-04-18T04:08:40.008Z,75.68
2023-04-18T04:11:06.448Z,75.72
2023-04-18T04:13:32.898Z,76.01
2023-04-18T04:15:59.431Z,76.25
2023-04-18T04:18:31.013Z,76.28
2023-04-18T04:20:58.975Z,76.26
2023-04-18T04:23:26.822Z,76.18
2023-04-18T04:25:53.941Z,76.01
2023-04-18T04:28:23.826Z,75.69
2023-04-18T04:30:53.849Z,75.42
2023-04-18T04:33:21.514Z,75.37
2023-04-18T04:35:48.428Z,75.16
2023-04-18T04:38:19.982Z,75.13
2023-04-18T04:40:46.431Z,75.35
2023-04-18T04:43:15.334Z,75.05
2023-04-18T04:45:43.159Z,75.17
2023-04-18T04:48:10.232Z,75.16
2023-04-18T04:50:38.214Z,75.47
2023-04-18T04:53:06.433Z,75.47
2023-04-18T04:55:33.399Z,75.74
2023-04-18T04:58:00.183Z,75.79
2023-04-18T05:00:26.790Z,75.79
2023-04-18T05:02:57.548Z,75.51
2023-04-18T05:05:24.213Z,75.06
2023-04-18T05:07:51.373Z,75.16
2023-04-18T05:10:17.934Z,74.94
2023-04-18T05:12:44.572Z,74.74
2023-04-18T05:15:11.262Z,74.53
2023-04-18T05:17:37.792Z,74.40
2023-04-18T05:20:05.467Z,74.74
2023-04-18T05:22:32.454Z,74.51
2023-04-18T05:24:59.182Z,74.52
2023-04-18T05:27:26.466Z,74.75
2023-04-18T05:29:52.970Z,74.17
2023-04-18T05:32:19.624Z,74.29
2023-04-18T05:34:46.158Z,74.17
2023-04-18T05:37:12.666Z,73.89
2023-04-18T05:39:40.025Z,73.39
2023-04-18T05:42:06.491Z,73.39
2023-04-18T05:44:33.019Z,73.08
2023-04-18T05:46:59.611Z,73.09
2023-04-18T05:49:26.085Z,72.80
2023-04-18T05:51:52.989Z,73.03
2023-04-18T05:54:21.549Z,73.10
2023-04-18T05:56:48.255Z,73.11
2023-04-18T05:59:14.697Z,73.08
2023-04-18T06:01:41.237Z,72.99
2023-04-18T06:04:08.715Z,72.47
2023-04-18T06:06:36.327Z,72.46
2023-04-18T06:09:02.912Z,72.15
2023-04-18T06:11:29.411Z,71.84
2023-04-18T06:13:56.086Z,71.93
2023-04-18T06:16:22.676Z,71.58
2023-04-18T06:18:49.175Z,70.96
2023-04-18T06:21:15.694Z,70.79
2023-04-18T06:23:42.132Z,70.68
2023-04-18T06:26:09.316Z,69.68
2023-04-18T06:28:35.930Z,69.58
2023-04-18T06:31:02.606Z,69.32
2023-04-18T06:33:29.117Z,68.93
2023-04-18T06:35:55.803Z,68.74
2023-04-18T06:38:22.502Z,68.05
2023-04-18T06:40:48.916Z,68.01
2023-04-18T06:43:15.478Z,67.52
2023-04-18T06:45:42.031Z,67.26
2023-04-18T06:48:10.822Z,67.78
2023-04-18T06:50:37.367Z,68.25
2023-04-18T06:53:03.810Z,68.17
2023-04-18T06:55:30.711Z,67.89
2023-04-18T06:57:57.291Z,67.77
2023-04-18T07:00:23.785Z,67.27
2023-04-18T07:02:50.552Z,66.92
2023-04-18T07:05:17.135Z,66.51
2023-04-18T07:07:43.626Z,66.11
2023-04-18T07:10:11.451Z,66.02
2023-04-18T07:12:38.059Z,65.89
2023-04-18T07:15:05.279Z,65.97
2023-04-18T07:17:31.972Z,65.68
2023-04-18T07:19:58.702Z,65.54
2023-04-18T07:22:25.484Z,65.11
2023-04-18T07:24:51.897Z,64.02
2023-04-18T07:27:18.340Z,63.92
2023-04-18T07:29:44.809Z,63.63
2023-04-18T07:32:11.251Z,63.85
2023-04-18T07:34:37.750Z,63.48
2023-04-18T07:37:04.416Z,62.71
2023-04-18T07:39:35.789Z,62.57
2023-04-18T07:42:03.974Z,61.82
2023-04-18T07:44:30.731Z,60.92
2023-04-18T07:46:57.367Z,60.38
2023-04-18T07:49:24.150Z,59.14
2023-04-18T07:51:50.634Z,58.44
2023-04-18T07:54:17.158Z,57.36
2023-04-18T07:56:43.644Z,56.57
2023-04-18T07:59:11.474Z,56.43
2023-04-18T08:01:37.998Z,56.92
2023-04-18T08:04:04.721Z,56.95
2023-04-18T08:06:31.444Z,57.32
2023-04-18T08:08:59.099Z,56.08
2023-04-18T08:11:25.647Z,55.51
2023-04-18T08:13:52.155Z,55.55
2023-04-18T08:16:18.666Z,54.93
2023-04-18T08:18:45.373Z,55.01
2023-04-18T08:21:11.932Z,54.16
2023-04-18T08:23:38.454Z,54.33
2023-04-18T08:26:05.035Z,54.33
2023-04-18T08:28:31.501Z,53.47
2023-04-18T08:30:58.107Z,54.03
2023-04-18T08:33:24.663Z,53.73
2023-04-18T08:35:51.544Z,53.75
2023-04-18T08:38:18.972Z,53.86
2023-04-18T08:40:47.835Z,54.44
2023-04-18T08:43:15.200Z,55.14
2023-04-18T08:45:43.479Z,55.00
2023-04-18T08:48:13.842Z,55.25
2023-04-18T08:50:41.588Z,55.74
2023-04-18T08:53:08.836Z,55.82
2023-04-18T08:55:35.775Z,55.88
2023-04-18T08:58:03.218Z,55.72
2023-04-18T09:00:30.498Z,54.82
2023-04-18T09:02:57.625Z,53.86
2023-04-18T09:05:25.273Z,53.28
2023-04-18T09:07:53.771Z,52.61
2023-04-18T09:10:29.219Z,52.26
2023-04-18T09:12:57.778Z,51.67
2023-04-18T09:15:29.408Z,51.23
2023-04-18T09:17:58.520Z,51.20
2023-04-18T09:20:41.155Z,50.53
2023-04-18T09:23:10.767Z,50.07
2023-04-18T09:25:46.743Z,50.70
2023-04-18T09:28:23.824Z,51.04
2023-04-18T09:30:52.458Z,51.71
2023-04-18T09:33:28.266Z,52.81
2023-04-18T09:35:55.843Z,52.63
2023-04-18T09:38:39.929Z,51.89
2023-04-18T09:41:15.665Z,51.66
2023-04-18T09:43:42.306Z,50.42
2023-04-18T09:46:09.441Z,49.20
2023-04-18T09:48:36.115Z,47.26
2023-04-18T09:51:07.731Z,47.10
2023-04-18T09:53:41.852Z,45.39
2023-04-18T09:56:27.729Z,45.27
2023-04-18T09:59:06.289Z,44.33
2023-04-18T10:01:33.925Z,44.08
2023-04-18T10:04:04.182Z,43.08
2023-04-18T10:06:33.481Z,41.55
2023-04-18T10:09:04.148Z,41.37
2023-04-18T10:11:32.128Z,41.02
2023-04-18T10:14:02.614Z,41.66
2023-04-18T10:16:29.644Z,43.51
2023-04-18T10:18:56.541Z,44.75
2023-04-18T10:21:23.003Z,46.71
2023-04-18T10:23:50.399Z,46.79
2023-04-18T10:26:16.969Z,46.93
2023-04-18T10:28:59.547Z,47.89
2023-04-18T10:31:27.597Z,47.77
2023-04-18T10:34:04.548Z,47.79
2023-04-18T10:36:32.592Z,46.80
2023-04-18T10:39:21.866Z,45.87
2023-04-18T10:41:50.711Z,44.27
2023-04-18T10:44:19.821Z,42.14
2023-04-18T10:46:52.332Z,41.74
2023-04-18T10:49:24.577Z,41.79
2023-04-18T10:51:55.259Z,41.85
2023-04-18T10:54:38.900Z,42.47
2023-04-18T10:57:07.660Z,42.26
2023-04-18T10:59:38.702Z,42.19
2023-04-18T11:02:12.625Z,42.96
2023-04-18T11:04:39.464Z,42.81
2023-04-18T11:07:06.015Z,43.16
2023-04-18T11:09:32.487Z,44.00
2023-04-18T11:12:07.831Z,43.59
2023-04-18T11:14:40.979Z,42.03
2023-04-18T11:17:24.958Z,41.08
2023-04-18T11:20:00.828Z,41.62
2023-04-18T11:22:27.433Z,42.81
2023-04-18T11:25:07.152Z,44.11
2023-04-18T11:27:33.882Z,45.22
2023-04-18T11:30:00.568Z,46.06
2023-04-18T11:32:27.148Z,47.54
2023-04-18T11:34:54.853Z,48.20
2023-04-18T11:37:21.866Z,48.50
2023-04-18T11:39:48.358Z,49.01
2023-04-18T11:42:14.930Z,50.05
2023-04-18T11:44:45.873Z,50.97
2023-04-18T11:47:29.839Z,51.28
2023-04-18T11:49:57.367Z,51.58
2023-04-18T11:52:25.044Z,51.90
2023-04-18T11:54:51.665Z,51.65
2023-04-18T11:57:30.863Z,50.76
2023-04-18T11:59:59.527Z,50.00
2023-04-18T12:02:28.202Z,48.66
2023-04-18T12:05:00.185Z,49.31
2023-04-18T12:07:45.921Z,48.78
2023-04-18T12:10:27.587Z,48.18
2023-04-18T12:12:55.812Z,48.17
2023-04-18T12:15:28.100Z,48.73
2023-04-18T12:17:59.877Z,49.03
2023-04-18T12:20:35.128Z,49.13
2023-04-18T12:23:02.355Z,46.65
2023-04-18T12:25:29.073Z,43.53
2023-04-18T12:28:15.064Z,40.73
2023-04-18T12:30:42.239Z,41.48
2023-04-18T12:33:11.549Z,42.33
2023-04-18T12:35:38.030Z,43.88
2023-04-18T12:38:04.867Z,45.79
2023-04-18T12:40:31.366Z,46.78
2023-04-18T12:42:57.848Z,47.49
2023-04-18T12:45:24.729Z,48.35
2023-04-18T12:47:53.099Z,48.74
2023-04-18T12:50:26.367Z,49.25
2023-04-18T12:52:54.807Z,49.40
2023-04-18T12:55:22.835Z,49.76
2023-04-18T12:57:52.336Z,50.46
2023-04-18T13:00:18.768Z,50.51
2023-04-18T13:02:45.962Z,50.50
2023-04-18T13:05:15.775Z,50.67
2023-04-18T13:07:43.156Z,50.61
2023-04-18T13:10:27.706Z,50.48
2023-04-18T13:12:54.199Z,49.89
2023-04-18T13:15:23.956Z,49.65
2023-04-18T13:17:50.507Z,48.67
2023-04-18T13:20:17.154Z,47.74
2023-04-18T13:22:44.503Z,47.08
2023-04-18T13:25:11.416Z,46.47
2023-04-18T13:27:41.450Z,43.51
2023-04-18T13:30:10.646Z,38.56
2023-04-18T13:32:39.172Z,36.07
2023-04-18T13:35:08.288Z,35.06
2023-04-18T13:37:34.867Z,35.14
2023-04-18T13:40:01.471Z,34.77
2023-04-18T13:42:28.027Z,36.39
2023-04-18T13:44:54.509Z,38.64
2023-04-18T13:47:21.120Z,40.84
2023-04-18T13:49:47.629Z,41.50
2023-04-18T13:52:14.175Z,43.33
2023-04-18T13:54:41.479Z,44.53
2023-04-18T13:57:11.726Z,44.48
2023-04-18T13:59:40.576Z,44.38
2023-04-18T14:02:08.543Z,44.05
2023-04-18T14:04:35.764Z,44.09
2023-04-18T14:07:06.338Z,44.50
2023-04-18T14:09:32.996Z,45.49
2023-04-18T14:11:59.608Z,45.13
2023-04-18T14:14:26.058Z,45.17
2023-04-18T14:16:53.722Z,45.21
2023-04-18T14:19:20.509Z,45.51
2023-04-18T14:21:47.968Z,45.15
2023-04-18T14:24:14.511Z,45.67
2023-04-18T14:26:41.018Z,46.03
2023-04-18T14:29:07.468Z,46.64
2023-04-18T14:31:34.045Z,47.27
2023-04-18T14:34:00.603Z,47.77
2023-04-18T14:36:27.830Z,48.12
2023-04-18T14:38:55.062Z,48.33
2023-04-18T14:41:21.671Z,48.31
2023-04-18T14:43:48.803Z,48.19
2023-04-18T14:46:18.139Z,47.88
2023-04-18T14:48:46.861Z,48.26
2023-04-18T14:51:15.460Z,48.20
2023-04-18T14:53:42.147Z,48.22
2023-04-18T14:56:08.826Z,48.17
2023-04-18T14:58:35.303Z,47.93
2023-04-18T15:01:01.768Z,48.38
2023-04-18T15:03:28.744Z,48.74
2023-04-18T15:05:56.460Z,48.75
2023-04-18T15:08:22.956Z,48.88
2023-04-18T15:10:49.416Z,49.01
2023-04-18T15:13:16.150Z,48.29
2023-04-18T15:15:42.633Z,47.99
2023-04-18T15:18:10.361Z,48.02
2023-04-18T15:20:37.301Z,47.10
2023-04-18T15:23:03.783Z,46.87
2023-04-18T15:25:31.005Z,46.93
2023-04-18T15:27:58.387Z,46.49
2023-04-18T15:30:25.565Z,46.34
2023-04-18T15:32:52.330Z,46.87
